createdAt,value
2022-12-11T00:04:25.400Z,96848.03
2022-12-11T00:09:27.400Z,96847.66
2022-12-11T00:14:30.134Z,96850.28
2022-12-11T00:19:32.033Z,96840.06
2022-12-11T00:24:34.002Z,96848.81
2022-12-11T00:29:35.922Z,96861.44
2022-12-11T00:34:38.319Z,96866.03
2022-12-11T00:39:40.206Z,96877.06
2022-12-11T00:44:42.138Z,96871.44
2022-12-11T00:49:49.421Z,96865.81
2022-12-11T00:54:51.526Z,96859.44
2022-12-11T00:59:53.409Z,96864.19
2022-12-11T01:04:55.471Z,96874.09
2022-12-11T01:10:16.036Z,96883.28
2022-12-11T01:15:19.599Z,96902.47
2022-12-11T01:20:23.109Z,96907.59
2022-12-11T01:25:26.208Z,96910.34
2022-12-11T01:30:28.093Z,96916.56
2022-12-11T01:35:30.152Z,96914.66
2022-12-11T01:40:31.961Z,96912.50
2022-12-11T01:45:42.149Z,96925.88
2022-12-11T01:50:53.593Z,96930.06
2022-12-11T01:55:57.350Z,96929.09
2022-12-11T02:01:00.825Z,96926.97
2022-12-11T02:06:03.224Z,96940.19
2022-12-11T02:11:19.630Z,96935.25
2022-12-11T02:16:47.039Z,96918.56
2022-12-11T02:21:53.286Z,96933.84
2022-12-11T02:27:00.664Z,96924.00
2022-12-11T02:32:31.518Z,96925.25
2022-12-11T02:37:37.737Z,96920.41
2022-12-11T02:42:42.647Z,96916.78
2022-12-11T02:47:47.924Z,96917.56
2022-12-11T02:52:53.649Z,96913.25
2022-12-11T02:58:18.281Z,96901.19
2022-12-11T03:03:20.196Z,96910.50
2022-12-11T03:08:22.028Z,96913.84
2022-12-11T03:13:24.249Z,96916.22
2022-12-11T03:18:56.803Z,96917.47
2022-12-11T03:24:38.954Z,96920.84
2022-12-11T03:30:11.538Z,96920.44
2022-12-11T03:35:33.503Z,96921.31
2022-12-11T03:40:38.972Z,96918.22
2022-12-11T03:45:42.669Z,96922.78
2022-12-11T03:50:47.051Z,96919.88
2022-12-11T03:55:50.169Z,96915.41
2022-12-11T04:00:52.047Z,96919.25
2022-12-11T04:05:55.784Z,96912.88
2022-12-11T04:11:16.438Z,96902.34
2022-12-11T04:16:18.167Z,96914.84
2022-12-11T04:21:39.851Z,96915.72
2022-12-11T04:26:46.434Z,96908.34
2022-12-11T04:31:48.359Z,96910.59
2022-12-11T04:36:50.926Z,96910.78
2022-12-11T04:41:52.945Z,96920.72
2022-12-11T04:46:54.670Z,96922.16
2022-12-11T04:51:56.510Z,96921.31
2022-12-11T04:56:58.258Z,96911.00
2022-12-11T05:02:00.133Z,96917.56
2022-12-11T05:07:02.283Z,96921.25
2022-12-11T05:12:04.311Z,96922.16
2022-12-11T05:17:06.018Z,96922.56
2022-12-11T05:22:07.716Z,96931.59
2022-12-11T05:27:10.327Z,96923.69
2022-12-11T05:32:12.138Z,96934.22
2022-12-11T05:37:13.932Z,96938.59
2022-12-11T05:42:15.662Z,96944.78
2022-12-11T05:47:20.363Z,96951.19
2022-12-11T05:52:22.394Z,96951.03
2022-12-11T05:57:24.165Z,96949.91
2022-12-11T06:02:26.271Z,96962.84
2022-12-11T06:07:28.117Z,96973.44
2022-12-11T06:12:31.205Z,96987.03
2022-12-11T06:17:34.384Z,96990.41
2022-12-11T06:22:36.659Z,96997.19
2022-12-11T06:27:38.370Z,97004.25
2022-12-11T06:32:40.044Z,97007.28
2022-12-11T06:37:42.196Z,97020.44
2022-12-11T06:42:44.123Z,97024.03
2022-12-11T06:47:46.087Z,97030.09
2022-12-11T06:52:47.707Z,97019.59
2022-12-11T06:57:49.816Z,97027.50
2022-12-11T07:02:51.757Z,97035.91
2022-12-11T07:07:55.062Z,97035.28
2022-12-11T07:12:56.875Z,97045.50
2022-12-11T07:17:58.759Z,97044.50
2022-12-11T07:23:01.334Z,97053.34
2022-12-11T07:28:03.807Z,97061.84
2022-12-11T07:33:06.742Z,97065.25
2022-12-11T07:38:09.006Z,97069.97
2022-12-11T07:43:10.926Z,97060.28
2022-12-11T07:48:12.944Z,97068.13
2022-12-11T07:53:14.952Z,97080.34
2022-12-11T07:58:16.914Z,97081.13
2022-12-11T08:03:21.424Z,97081.28
2022-12-11T08:08:23.300Z,97087.78
2022-12-11T08:13:25.334Z,97084.59
2022-12-11T08:18:27.420Z,97082.41
2022-12-11T08:23:29.346Z,97087.94
2022-12-11T08:28:31.890Z,97095.56
2022-12-11T08:33:34.158Z,97098.66
2022-12-11T08:38:36.844Z,97102.75
2022-12-11T08:43:39.450Z,97104.00
2022-12-11T08:48:43.101Z,97108.47
2022-12-11T08:53:45.148Z,97117.75
2022-12-11T08:58:47.752Z,97102.53
2022-12-11T09:03:50.718Z,97112.09
2022-12-11T09:08:53.807Z,97102.53
2022-12-11T09:13:56.133Z,97100.50
2022-12-11T09:18:59.467Z,97105.94
2022-12-11T09:24:01.803Z,97096.06
2022-12-11T09:29:05.190Z,97098.63
2022-12-11T09:34:09.402Z,97108.19
2022-12-11T09:39:13.188Z,97099.41
2022-12-11T09:44:33.835Z,97094.81
2022-12-11T09:49:41.813Z,97099.50
2022-12-11T09:55:01.838Z,97096.06
2022-12-11T10:00:05.643Z,97095.09
2022-12-11T10:05:20.147Z,97088.31
2022-12-11T10:10:27.815Z,97081.19
2022-12-11T10:15:41.633Z,97086.19
2022-12-11T10:20:45.372Z,97075.53
2022-12-11T10:25:53.666Z,97081.66
2022-12-11T10:31:05.679Z,97084.22
2022-12-11T10:36:10.013Z,97088.06
2022-12-11T10:41:21.344Z,97098.38
2022-12-11T10:46:26.448Z,97090.50
2022-12-11T10:51:31.341Z,97080.69
2022-12-11T10:56:35.698Z,97086.69
2022-12-11T11:01:37.846Z,97096.38
2022-12-11T11:06:39.726Z,97091.63
2022-12-11T11:11:50.478Z,97088.22
2022-12-11T11:16:56.471Z,97097.50
2022-12-11T11:22:04.747Z,97090.69
2022-12-11T11:27:24.873Z,97079.75
2022-12-11T11:32:33.559Z,97070.53
2022-12-11T11:37:35.397Z,97057.03
2022-12-11T11:43:06.275Z,97063.72
2022-12-11T11:48:17.046Z,97055.94
2022-12-11T11:53:33.086Z,97059.25
2022-12-11T11:58:48.512Z,97054.34
2022-12-11T12:03:52.232Z,97049.28
2022-12-11T12:09:20.957Z,97059.88
2022-12-11T12:20:05.715Z,97043.88
2022-12-11T12:25:24.678Z,97050.63
2022-12-11T12:30:31.146Z,97041.94
2022-12-11T12:35:59.815Z,97039.88
2022-12-11T12:41:15.767Z,97050.13
2022-12-11T12:46:55.211Z,97047.81
2022-12-11T12:51:57.932Z,97041.88
2022-12-11T12:57:02.980Z,97045.56
2022-12-11T13:02:06.871Z,97046.47
2022-12-11T13:07:35.269Z,97051.72
2022-12-11T13:12:46.103Z,97061.28
2022-12-11T13:17:48.086Z,97067.59
2022-12-11T13:23:07.920Z,97073.66
2022-12-11T13:28:29.778Z,97080.81
2022-12-11T13:33:32.722Z,97093.53
2022-12-11T13:38:36.483Z,97096.47
2022-12-11T13:43:42.096Z,97104.94
2022-12-11T13:48:57.327Z,97105.00
2022-12-11T13:54:19.261Z,97114.06
2022-12-11T13:59:26.295Z,97117.94
2022-12-11T14:04:30.034Z,97121.34
2022-12-11T14:09:32.307Z,97119.72
2022-12-11T14:14:57.307Z,97135.03
2022-12-11T14:20:02.010Z,97148.41
2022-12-11T14:25:22.303Z,97160.22
2022-12-11T14:30:30.003Z,97165.13
2022-12-11T14:35:39.117Z,97165.41
2022-12-11T14:40:46.756Z,97173.38
2022-12-11T14:45:50.485Z,97179.41
2022-12-11T14:50:55.836Z,97198.22
2022-12-11T14:56:01.571Z,97196.53
2022-12-11T15:01:06.465Z,97206.44
2022-12-11T15:06:31.309Z,97215.19
2022-12-11T15:11:33.334Z,97217.03
2022-12-11T15:16:40.679Z,97219.97
2022-12-11T15:21:42.856Z,97224.81
2022-12-11T15:26:47.639Z,97231.09
2022-12-11T15:32:04.109Z,97238.00
2022-12-11T15:37:18.284Z,97245.19
2022-12-11T15:42:46.402Z,97256.75
2022-12-11T15:47:49.354Z,97271.03
2022-12-11T15:52:53.171Z,97276.00
2022-12-11T15:57:58.276Z,97300.91
2022-12-11T16:03:00.482Z,97303.03
2022-12-11T16:08:02.575Z,97314.59
2022-12-11T16:13:04.425Z,97316.94
2022-12-11T16:18:15.955Z,97328.53
2022-12-11T16:23:18.611Z,97319.44
2022-12-11T16:28:21.982Z,97328.59
2022-12-11T16:33:23.960Z,97338.69
2022-12-11T16:38:28.710Z,97335.94
2022-12-11T16:43:32.348Z,97345.75
2022-12-11T16:48:34.578Z,97351.56
2022-12-11T16:53:38.793Z,97348.97
2022-12-11T16:58:41.241Z,97356.63
2022-12-11T17:03:44.201Z,97353.28
2022-12-11T17:08:47.525Z,97353.59
2022-12-11T17:13:57.227Z,97350.91
2022-12-11T17:18:59.335Z,97349.19
2022-12-11T17:24:01.812Z,97364.53
2022-12-11T17:29:05.420Z,97369.25
2022-12-11T17:34:07.634Z,97373.28
2022-12-11T17:39:10.268Z,97376.91
2022-12-11T17:44:13.123Z,97376.25
2022-12-11T17:49:15.594Z,97380.75
2022-12-11T17:54:17.460Z,97380.56
2022-12-11T17:59:19.568Z,97373.88
2022-12-11T18:04:22.125Z,97367.47
2022-12-11T18:09:24.360Z,97363.31
2022-12-11T18:14:26.876Z,97372.34
2022-12-11T18:19:29.409Z,97372.97
2022-12-11T18:24:32.490Z,97373.81
2022-12-11T18:29:35.229Z,97369.75
2022-12-11T18:34:37.681Z,97374.00
2022-12-11T18:39:40.214Z,97378.72
2022-12-11T18:44:44.657Z,97382.41
2022-12-11T18:49:46.890Z,97375.28
2022-12-11T18:54:52.839Z,97374.59
2022-12-11T18:59:55.770Z,97381.03
2022-12-11T19:04:58.217Z,97389.31
2022-12-11T19:10:01.328Z,97382.44
2022-12-11T19:15:04.338Z,97384.34
2022-12-11T19:20:40.188Z,97380.34
2022-12-11T19:25:35.873Z,97384.63
2022-12-11T19:30:43.632Z,97364.13
2022-12-11T19:35:46.368Z,97370.44
2022-12-11T19:40:59.894Z,97377.06
2022-12-11T19:46:07.113Z,97371.09
2022-12-11T19:51:11.380Z,97364.81
2022-12-11T19:56:15.545Z,97366.06
2022-12-11T20:01:26.326Z,97361.41
2022-12-11T20:06:32.215Z,97364.16
2022-12-11T20:11:34.909Z,97360.72
2022-12-11T20:17:09.198Z,97365.31
2022-12-11T20:22:03.464Z,97371.06
2022-12-11T20:27:09.925Z,97368.50
2022-12-11T20:32:12.463Z,97370.19
2022-12-11T20:37:15.096Z,97384.34
2022-12-11T20:42:17.418Z,97390.28
2022-12-11T20:47:20.658Z,97394.84
2022-12-11T20:52:23.019Z,97402.31
2022-12-11T20:57:26.693Z,97405.09
2022-12-11T21:02:30.943Z,97403.28
2022-12-11T21:07:34.298Z,97404.22
2022-12-11T21:12:38.670Z,97405.34
2022-12-11T21:17:41.360Z,97404.66
2022-12-11T21:22:43.330Z,97403.63
2022-12-11T21:27:45.679Z,97412.44
2022-12-11T21:32:47.840Z,97425.53
2022-12-11T21:37:49.808Z,97427.44
2022-12-11T21:42:51.930Z,97425.97
2022-12-11T21:47:53.622Z,97423.09
2022-12-11T21:52:55.420Z,97430.13
2022-12-11T21:57:57.225Z,97425.66
2022-12-11T22:02:59.174Z,97431.84
2022-12-11T22:08:01.082Z,97441.50
2022-12-11T22:13:02.893Z,97443.97
2022-12-11T22:18:04.675Z,97432.47
2022-12-11T22:23:06.780Z,97438.22
2022-12-11T22:28:08.746Z,97432.22
2022-12-11T22:33:10.915Z,97435.97
2022-12-11T22:38:12.695Z,97428.50
2022-12-11T22:43:14.497Z,97429.59
2022-12-11T22:48:16.126Z,97431.09
2022-12-11T22:53:17.841Z,97433.66
2022-12-11T22:58:21.938Z,97437.22
2022-12-11T23:03:24.153Z,97439.81
2022-12-11T23:08:26.184Z,97445.78
2022-12-11T23:13:28.036Z,97450.50
2022-12-11T23:18:29.726Z,97452.31
2022-12-11T23:23:31.493Z,97468.72
2022-12-11T23:28:34.017Z,97462.44
2022-12-11T23:33:36.539Z,97454.22
2022-12-11T23:38:39.538Z,97452.34
2022-12-11T23:43:42.415Z,97453.94
2022-12-11T23:48:44.779Z,97452.44
2022-12-11T23:53:47.263Z,97452.03
2022-12-11T23:58:49.468Z,97447.34
